LFKC Airport Information

Runway Information
Runway 18 Length 7579 ft width 131 ft
Elevation 63 ft Threshold 0 ft Heading 179
Runway 36 Length 7579 ft Width 131 ft
Elevation 198 ft Threshold 656 ft Heading 359
Airport Frequencies
Type ATIS Name CALVI ATIS Frequency 131.175 MHZ
Type GND Name CALVI GND Frequency 121.7 MHZ
Type TWR Name CALVI TWR Frequency 120.8 MHZ
Airport Navaids
Type NDB Name Calvi Frequency 375 KHZ
Airport Weather Information & NOTAM
ADDS - METARS form results

(1302 UTC 22 June 2018)
 
METAR text: LFKC 221230Z AUTO 32010KT 270V020 9999 SCT040 28/19 Q1011 BECMG 20012KT
Conditions at: LFKC (CALVI/ST. CATHER, FR) observed 1230 UTC 22 June 2018
Temperature: 28.0°C (82°F)
Dewpoint: 19.0°C (66°F) [RH = 58%]
Pressure (altimeter): 29.85 inches Hg (1011.0 mb)
Winds: from the NW (320 degrees) at 12 MPH (10 knots; 5.2 m/s)
Visibility: 6 or more miles (10+ km)
Ceiling: at least 12,000 feet AGL
Clouds: scattered clouds at 4000 feet AGL
Weather: no significant weather observed at this time